29 сентября вторник
СЕЙЧАС +19°С

ПОПУЛЯРНЫЕ КОММЕНТАРИИ

ВСЕ КОММЕНТАРИИ (14)

Гость
8 дек 2019 в 12:24

в отличном месте построили аэропорт)!

Фото пользователя
8 дек 2019 в 14:50

Да ладно про туман заливать.Свалили по-хорошему,пока кому-нибудь опять плохо не стало.Наслышаны.

Фото пользователя
8 дек 2019 в 15:36

Побоялись садится в аномальном месте. Не чего! Пусть буржуи и спекулянты полетают.

Андрей
8 дек 2019 в 17:27

Братики Ашотик и Саркис не смогли взять билет до Краснодара. Вынуждены были взять до Ростова. В самолете познакомились с Андроником - командиром экипажа и он решил земляков домой подбросить. А следующим рейсом летела их тётя Анжела и дядя Арарат.

Гость
8 дек 2019 в 18:21

Что за глупая дежурная фраза про работу "по фактической погоде"? Аэропорт всегда работает по фактической погоде. По другому не бывает.

Макс
8 дек 2019 в 19:23

В это время туманы случаются и это надо предусмотреть при планировании полетов

Бывший летчик гражданской авиации
8 дек 2019 в 21:11

URRP 081800Z VRB01MPS 0150 R05/0500N FG VV001 00/M00 Q1016 R05/190057 TEMPO -FZDZ OVC001 RMK QBB030 OBST OBSC QFE758/1010 - 10m

150м видимость за 21 час по МОскве. В авиации это назвается "чехол".